sensor_id;sensor_type;location;lat;lon;timestamp;P1;durP1;ratioP1;P2;durP2;ratioP2
70132;SDS011;57495;49.922;7.966;2023-03-23T00:00:43;3.13;;;0.30;;
70132;SDS011;57495;49.922;7.966;2023-03-23T00:02:44;3.17;;;0.80;;
70132;SDS011;57495;49.922;7.966;2023-03-23T00:04:45;2.30;;;0.50;;
70132;SDS011;57495;49.922;7.966;2023-03-23T00:06:49;2.42;;;0.70;;
70132;SDS011;57495;49.922;7.966;2023-03-23T00:08:52;2.38;;;0.50;;
70132;SDS011;57495;49.922;7.966;2023-03-23T00:10:59;3.50;;;0.70;;
70132;SDS011;57495;49.922;7.966;2023-03-23T00:13:01;3.65;;;0.60;;
70132;SDS011;57495;49.922;7.966;2023-03-23T00:15:03;2.60;;;0.50;;
70132;SDS011;57495;49.922;7.966;2023-03-23T00:17:07;3.83;;;0.60;;
70132;SDS011;57495;49.922;7.966;2023-03-23T00:19:11;3.65;;;0.50;;
70132;SDS011;57495;49.922;7.966;2023-03-23T00:21:13;3.22;;;0.50;;
70132;SDS011;57495;49.922;7.966;2023-03-23T00:23:15;3.55;;;0.55;;
70132;SDS011;57495;49.922;7.966;2023-03-23T00:25:20;2.53;;;0.40;;
70132;SDS011;57495;49.922;7.966;2023-03-23T00:27:22;2.53;;;0.55;;
70132;SDS011;57495;49.922;7.966;2023-03-23T00:29:24;4.20;;;0.60;;
70132;SDS011;57495;49.922;7.966;2023-03-23T00:31:26;2.55;;;0.50;;
70132;SDS011;57495;49.922;7.966;2023-03-23T00:33:32;2.47;;;0.60;;
70132;SDS011;57495;49.922;7.966;2023-03-23T00:35:37;3.83;;;0.73;;
70132;SDS011;57495;49.922;7.966;2023-03-23T00:37:39;2.10;;;0.50;;
70132;SDS011;57495;49.922;7.966;2023-03-23T00:39:41;3.33;;;0.50;;
70132;SDS011;57495;49.922;7.966;2023-03-23T00:41:46;3.03;;;0.65;;
70132;SDS011;57495;49.922;7.966;2023-03-23T00:43:49;2.35;;;0.50;;
70132;SDS011;57495;49.922;7.966;2023-03-23T00:45:51;2.87;;;0.83;;
70132;SDS011;57495;49.922;7.966;2023-03-23T00:47:53;2.67;;;0.40;;
70132;SDS011;57495;49.922;7.966;2023-03-23T00:49:54;3.33;;;1.00;;
70132;SDS011;57495;49.922;7.966;2023-03-23T00:51:57;3.15;;;0.50;;
70132;SDS011;57495;49.922;7.966;2023-03-23T00:53:59;1.92;;;0.50;;
70132;SDS011;57495;49.922;7.966;2023-03-23T00:56:00;2.23;;;0.40;;
70132;SDS011;57495;49.922;7.966;2023-03-23T00:58:03;2.58;;;0.50;;
70132;SDS011;57495;49.922;7.966;2023-03-23T01:00:05;2.08;;;0.70;;
70132;SDS011;57495;49.922;7.966;2023-03-23T01:02:10;3.05;;;0.80;;
70132;SDS011;57495;49.922;7.966;2023-03-23T01:04:12;3.78;;;0.47;;
70132;SDS011;57495;49.922;7.966;2023-03-23T01:06:14;3.60;;;0.60;;
70132;SDS011;57495;49.922;7.966;2023-03-23T01:08:16;3.17;;;0.43;;
70132;SDS011;57495;49.922;7.966;2023-03-23T01:10:18;2.60;;;0.47;;
70132;SDS011;57495;49.922;7.966;2023-03-23T01:12:20;4.15;;;0.68;;
70132;SDS011;57495;49.922;7.966;2023-03-23T01:14:25;2.40;;;0.40;;
70132;SDS011;57495;49.922;7.966;2023-03-23T01:16:27;3.80;;;0.50;;
70132;SDS011;57495;49.922;7.966;2023-03-23T01:18:28;2.97;;;0.50;;
70132;SDS011;57495;49.922;7.966;2023-03-23T01:20:30;2.97;;;0.50;;
70132;SDS011;57495;49.922;7.966;2023-03-23T01:22:32;3.53;;;0.50;;
70132;SDS011;57495;49.922;7.966;2023-03-23T01:24:34;2.25;;;0.60;;
70132;SDS011;57495;49.922;7.966;2023-03-23T01:26:35;2.37;;;0.50;;
70132;SDS011;57495;49.922;7.966;2023-03-23T01:28:38;2.65;;;0.60;;
70132;SDS011;57495;49.922;7.966;2023-03-23T01:30:41;2.90;;;0.50;;
70132;SDS011;57495;49.922;7.966;2023-03-23T01:32:43;3.60;;;0.40;;
70132;SDS011;57495;49.922;7.966;2023-03-23T01:34:44;2.10;;;0.50;;
70132;SDS011;57495;49.922;7.966;2023-03-23T01:36:45;3.23;;;0.37;;
70132;SDS011;57495;49.922;7.966;2023-03-23T01:38:47;2.45;;;0.50;;
70132;SDS011;57495;49.922;7.966;2023-03-23T01:40:50;2.20;;;0.43;;
70132;SDS011;57495;49.922;7.966;2023-03-23T01:42:51;2.45;;;0.50;;
70132;SDS011;57495;49.922;7.966;2023-03-23T01:47:24;2.67;;;0.30;;
70132;SDS011;57495;49.922;7.966;2023-03-23T01:49:27;2.35;;;0.50;;
70132;SDS011;57495;49.922;7.966;2023-03-23T01:51:31;2.33;;;0.50;;
70132;SDS011;57495;49.922;7.966;2023-03-23T01:53:37;4.20;;;0.47;;
70132;SDS011;57495;49.922;7.966;2023-03-23T01:55:42;2.97;;;0.60;;
70132;SDS011;57495;49.922;7.966;2023-03-23T01:57:48;2.53;;;0.50;;
70132;SDS011;57495;49.922;7.966;2023-03-23T01:59:51;1.88;;;0.30;;
70132;SDS011;57495;49.922;7.966;2023-03-23T02:01:54;2.65;;;0.70;;
70132;SDS011;57495;49.922;7.966;2023-03-23T02:03:57;3.53;;;0.70;;
70132;SDS011;57495;49.922;7.966;2023-03-23T02:05:59;2.22;;;0.55;;
70132;SDS011;57495;49.922;7.966;2023-03-23T02:08:00;3.00;;;0.80;;
70132;SDS011;57495;49.922;7.966;2023-03-23T02:10:05;4.70;;;0.50;;
70132;SDS011;57495;49.922;7.966;2023-03-23T02:12:07;1.80;;;0.30;;
70132;SDS011;57495;49.922;7.966;2023-03-23T02:14:09;2.33;;;0.50;;
70132;SDS011;57495;49.922;7.966;2023-03-23T02:16:14;2.13;;;0.50;;
70132;SDS011;57495;49.922;7.966;2023-03-23T02:18:26;2.80;;;0.50;;
70132;SDS011;57495;49.922;7.966;2023-03-23T02:20:47;2.97;;;0.65;;
70132;SDS011;57495;49.922;7.966;2023-03-23T02:23:08;2.75;;;0.30;;
70132;SDS011;57495;49.922;7.966;2023-03-23T02:25:25;2.92;;;0.47;;
70132;SDS011;57495;49.922;7.966;2023-03-23T02:27:49;3.42;;;0.60;;
70132;SDS011;57495;49.922;7.966;2023-03-23T02:30:09;2.63;;;0.40;;
70132;SDS011;57495;49.922;7.966;2023-03-23T02:32:31;3.20;;;0.63;;
70132;SDS011;57495;49.922;7.966;2023-03-23T02:34:46;1.85;;;0.38;;
70132;SDS011;57495;49.922;7.966;2023-03-23T02:36:53;2.20;;;0.43;;
70132;SDS011;57495;49.922;7.966;2023-03-23T02:39:01;3.50;;;0.50;;
70132;SDS011;57495;49.922;7.966;2023-03-23T02:41:06;2.20;;;0.50;;
70132;SDS011;57495;49.922;7.966;2023-03-23T02:43:10;2.63;;;0.70;;
70132;SDS011;57495;49.922;7.966;2023-03-23T02:45:16;2.70;;;0.70;;
70132;SDS011;57495;49.922;7.966;2023-03-23T02:47:19;2.42;;;0.50;;
70132;SDS011;57495;49.922;7.966;2023-03-23T02:49:24;3.22;;;0.90;;
70132;SDS011;57495;49.922;7.966;2023-03-23T02:51:30;3.77;;;0.73;;
70132;SDS011;57495;49.922;7.966;2023-03-23T02:53:34;3.70;;;0.65;;
70132;SDS011;57495;49.922;7.966;2023-03-23T02:55:41;3.83;;;0.82;;
70132;SDS011;57495;49.922;7.966;2023-03-23T02:57:45;3.17;;;0.80;;
70132;SDS011;57495;49.922;7.966;2023-03-23T02:59:47;3.60;;;0.70;;
70132;SDS011;57495;49.922;7.966;2023-03-23T03:01:50;2.63;;;0.67;;
70132;SDS011;57495;49.922;7.966;2023-03-23T03:03:56;2.45;;;0.50;;
70132;SDS011;57495;49.922;7.966;2023-03-23T03:06:02;3.80;;;0.70;;
70132;SDS011;57495;49.922;7.966;2023-03-23T03:08:18;3.10;;;0.80;;
70132;SDS011;57495;49.922;7.966;2023-03-23T03:10:26;3.55;;;0.73;;
70132;SDS011;57495;49.922;7.966;2023-03-23T03:12:34;2.57;;;0.53;;
70132;SDS011;57495;49.922;7.966;2023-03-23T03:14:41;2.80;;;0.50;;
70132;SDS011;57495;49.922;7.966;2023-03-23T03:16:49;3.22;;;0.85;;
70132;SDS011;57495;49.922;7.966;2023-03-23T03:18:59;2.53;;;0.60;;
70132;SDS011;57495;49.922;7.966;2023-03-23T03:21:05;2.90;;;0.60;;
70132;SDS011;57495;49.922;7.966;2023-03-23T03:23:08;2.57;;;0.70;;
70132;SDS011;57495;49.922;7.966;2023-03-23T03:25:14;2.33;;;0.60;;
70132;SDS011;57495;49.922;7.966;2023-03-23T03:27:17;4.47;;;0.80;;
70132;SDS011;57495;49.922;7.966;2023-03-23T03:29:23;3.72;;;0.60;;
70132;SDS011;57495;49.922;7.966;2023-03-23T03:31:30;2.35;;;0.77;;
70132;SDS011;57495;49.922;7.966;2023-03-23T03:33:35;2.97;;;0.80;;
70132;SDS011;57495;49.922;7.966;2023-03-23T03:35:36;4.38;;;1.00;;
70132;SDS011;57495;49.922;7.966;2023-03-23T03:37:41;2.70;;;0.70;;
70132;SDS011;57495;49.922;7.966;2023-03-23T03:39:42;3.28;;;0.80;;
70132;SDS011;57495;49.922;7.966;2023-03-23T03:41:45;2.42;;;0.80;;
70132;SDS011;57495;49.922;7.966;2023-03-23T03:43:47;3.03;;;0.73;;
70132;SDS011;57495;49.922;7.966;2023-03-23T03:45:49;3.13;;;0.98;;
70132;SDS011;57495;49.922;7.966;2023-03-23T03:47:50;3.17;;;1.02;;
70132;SDS011;57495;49.922;7.966;2023-03-23T03:49:51;2.47;;;0.57;;
70132;SDS011;57495;49.922;7.966;2023-03-23T03:51:53;3.63;;;0.68;;
70132;SDS011;57495;49.922;7.966;2023-03-23T03:53:54;3.73;;;0.70;;
70132;SDS011;57495;49.922;7.966;2023-03-23T03:55:56;4.88;;;0.60;;
70132;SDS011;57495;49.922;7.966;2023-03-23T03:58:01;2.40;;;0.50;;
70132;SDS011;57495;49.922;7.966;2023-03-23T04:00:05;2.45;;;0.45;;
70132;SDS011;57495;49.922;7.966;2023-03-23T04:02:14;4.85;;;1.05;;
70132;SDS011;57495;49.922;7.966;2023-03-23T04:04:20;2.87;;;0.73;;
70132;SDS011;57495;49.922;7.966;2023-03-23T04:06:21;5.15;;;0.93;;
70132;SDS011;57495;49.922;7.966;2023-03-23T04:08:23;7.45;;;0.90;;
70132;SDS011;57495;49.922;7.966;2023-03-23T04:10:27;2.55;;;0.63;;
70132;SDS011;57495;49.922;7.966;2023-03-23T04:12:29;3.58;;;0.60;;
70132;SDS011;57495;49.922;7.966;2023-03-23T04:14:32;3.23;;;0.70;;
70132;SDS011;57495;49.922;7.966;2023-03-23T04:16:33;4.45;;;0.98;;
70132;SDS011;57495;49.922;7.966;2023-03-23T04:18:35;3.60;;;0.70;;
70132;SDS011;57495;49.922;7.966;2023-03-23T04:20:38;4.05;;;0.68;;
70132;SDS011;57495;49.922;7.966;2023-03-23T04:22:39;3.75;;;0.70;;
70132;SDS011;57495;49.922;7.966;2023-03-23T04:24:43;3.67;;;0.63;;
70132;SDS011;57495;49.922;7.966;2023-03-23T04:26:45;3.03;;;0.65;;
70132;SDS011;57495;49.922;7.966;2023-03-23T04:28:46;3.70;;;0.70;;
70132;SDS011;57495;49.922;7.966;2023-03-23T04:30:51;3.45;;;0.60;;
70132;SDS011;57495;49.922;7.966;2023-03-23T04:32:53;2.95;;;0.80;;
70132;SDS011;57495;49.922;7.966;2023-03-23T04:34:56;3.37;;;0.80;;
70132;SDS011;57495;49.922;7.966;2023-03-23T04:36:59;3.40;;;0.60;;
70132;SDS011;57495;49.922;7.966;2023-03-23T04:39:00;4.30;;;0.93;;
70132;SDS011;57495;49.922;7.966;2023-03-23T04:41:06;3.47;;;0.95;;
70132;SDS011;57495;49.922;7.966;2023-03-23T04:43:08;4.25;;;0.65;;
70132;SDS011;57495;49.922;7.966;2023-03-23T04:45:13;3.20;;;0.90;;
70132;SDS011;57495;49.922;7.966;2023-03-23T04:47:17;4.63;;;0.80;;
70132;SDS011;57495;49.922;7.966;2023-03-23T04:49:19;3.92;;;0.82;;
70132;SDS011;57495;49.922;7.966;2023-03-23T04:51:21;3.90;;;0.88;;
70132;SDS011;57495;49.922;7.966;2023-03-23T04:53:23;4.55;;;1.20;;
70132;SDS011;57495;49.922;7.966;2023-03-23T04:55:24;2.87;;;0.60;;
70132;SDS011;57495;49.922;7.966;2023-03-23T04:57:27;3.47;;;0.80;;
70132;SDS011;57495;49.922;7.966;2023-03-23T04:59:28;3.58;;;0.95;;
70132;SDS011;57495;49.922;7.966;2023-03-23T05:01:30;3.42;;;0.80;;
70132;SDS011;57495;49.922;7.966;2023-03-23T05:03:35;2.60;;;0.70;;
70132;SDS011;57495;49.922;7.966;2023-03-23T05:05:36;3.93;;;0.93;;
70132;SDS011;57495;49.922;7.966;2023-03-23T05:07:40;3.10;;;1.00;;
70132;SDS011;57495;49.922;7.966;2023-03-23T05:09:46;6.78;;;0.98;;
70132;SDS011;57495;49.922;7.966;2023-03-23T05:11:48;3.03;;;0.57;;
70132;SDS011;57495;49.922;7.966;2023-03-23T05:13:49;3.83;;;0.95;;
70132;SDS011;57495;49.922;7.966;2023-03-23T05:15:51;3.50;;;1.10;;
70132;SDS011;57495;49.922;7.966;2023-03-23T05:17:52;3.70;;;0.93;;
70132;SDS011;57495;49.922;7.966;2023-03-23T05:19:55;3.53;;;1.02;;
70132;SDS011;57495;49.922;7.966;2023-03-23T05:21:57;4.25;;;1.25;;
70132;SDS011;57495;49.922;7.966;2023-03-23T05:24:02;4.00;;;0.82;;
70132;SDS011;57495;49.922;7.966;2023-03-23T05:26:04;3.73;;;1.10;;
70132;SDS011;57495;49.922;7.966;2023-03-23T05:28:07;5.70;;;1.23;;
70132;SDS011;57495;49.922;7.966;2023-03-23T05:30:09;4.00;;;1.33;;
70132;SDS011;57495;49.922;7.966;2023-03-23T05:32:11;3.50;;;1.08;;
70132;SDS011;57495;49.922;7.966;2023-03-23T05:34:13;3.63;;;1.00;;
70132;SDS011;57495;49.922;7.966;2023-03-23T05:36:17;3.70;;;1.17;;
70132;SDS011;57495;49.922;7.966;2023-03-23T05:38:18;3.90;;;1.50;;
70132;SDS011;57495;49.922;7.966;2023-03-23T05:40:20;4.53;;;1.40;;
70132;SDS011;57495;49.922;7.966;2023-03-23T05:42:21;3.83;;;1.10;;
70132;SDS011;57495;49.922;7.966;2023-03-23T05:44:24;3.03;;;1.00;;
70132;SDS011;57495;49.922;7.966;2023-03-23T05:46:26;4.23;;;1.10;;
70132;SDS011;57495;49.922;7.966;2023-03-23T05:48:28;3.70;;;1.15;;
70132;SDS011;57495;49.922;7.966;2023-03-23T05:50:29;5.00;;;1.40;;
70132;SDS011;57495;49.922;7.966;2023-03-23T05:52:32;3.67;;;1.13;;
70132;SDS011;57495;49.922;7.966;2023-03-23T05:54:35;4.15;;;1.20;;
70132;SDS011;57495;49.922;7.966;2023-03-23T05:56:36;4.13;;;1.10;;
70132;SDS011;57495;49.922;7.966;2023-03-23T05:58:38;3.55;;;1.00;;
70132;SDS011;57495;49.922;7.966;2023-03-23T06:00:39;3.40;;;1.33;;
70132;SDS011;57495;49.922;7.966;2023-03-23T06:02:41;4.65;;;1.15;;
70132;SDS011;57495;49.922;7.966;2023-03-23T06:04:43;4.30;;;1.83;;
70132;SDS011;57495;49.922;7.966;2023-03-23T06:06:45;4.20;;;1.40;;
70132;SDS011;57495;49.922;7.966;2023-03-23T06:08:47;3.42;;;1.20;;
70132;SDS011;57495;49.922;7.966;2023-03-23T06:10:50;4.45;;;1.30;;
70132;SDS011;57495;49.922;7.966;2023-03-23T06:12:51;3.70;;;1.17;;
70132;SDS011;57495;49.922;7.966;2023-03-23T06:14:53;3.78;;;1.20;;
70132;SDS011;57495;49.922;7.966;2023-03-23T06:16:54;4.10;;;0.97;;
70132;SDS011;57495;49.922;7.966;2023-03-23T06:18:56;3.17;;;1.00;;
70132;SDS011;57495;49.922;7.966;2023-03-23T06:21:00;4.22;;;1.40;;
70132;SDS011;57495;49.922;7.966;2023-03-23T06:23:01;3.30;;;1.13;;
70132;SDS011;57495;49.922;7.966;2023-03-23T06:25:06;3.70;;;1.40;;
70132;SDS011;57495;49.922;7.966;2023-03-23T06:27:08;3.93;;;0.93;;
70132;SDS011;57495;49.922;7.966;2023-03-23T06:29:10;5.15;;;1.50;;
70132;SDS011;57495;49.922;7.966;2023-03-23T06:31:12;4.03;;;1.27;;
70132;SDS011;57495;49.922;7.966;2023-03-23T06:33:14;3.65;;;1.20;;
70132;SDS011;57495;49.922;7.966;2023-03-23T06:35:17;4.60;;;1.30;;
70132;SDS011;57495;49.922;7.966;2023-03-23T06:37:18;4.70;;;1.77;;
70132;SDS011;57495;49.922;7.966;2023-03-23T06:39:20;3.33;;;1.00;;
70132;SDS011;57495;49.922;7.966;2023-03-23T06:41:23;3.70;;;1.30;;
70132;SDS011;57495;49.922;7.966;2023-03-23T06:43:25;5.00;;;1.60;;
70132;SDS011;57495;49.922;7.966;2023-03-23T06:45:26;3.85;;;1.73;;
70132;SDS011;57495;49.922;7.966;2023-03-23T06:47:28;4.97;;;2.10;;
70132;SDS011;57495;49.922;7.966;2023-03-23T06:49:30;7.85;;;1.42;;
70132;SDS011;57495;49.922;7.966;2023-03-23T06:51:31;3.85;;;1.30;;
70132;SDS011;57495;49.922;7.966;2023-03-23T06:53:33;4.03;;;1.25;;
70132;SDS011;57495;49.922;7.966;2023-03-23T06:55:34;4.38;;;1.50;;
70132;SDS011;57495;49.922;7.966;2023-03-23T06:57:38;5.53;;;1.90;;
70132;SDS011;57495;49.922;7.966;2023-03-23T06:59:39;4.82;;;1.92;;
70132;SDS011;57495;49.922;7.966;2023-03-23T07:01:41;3.67;;;1.80;;
70132;SDS011;57495;49.922;7.966;2023-03-23T07:03:42;5.55;;;1.98;;
70132;SDS011;57495;49.922;7.966;2023-03-23T07:05:45;5.15;;;2.13;;
70132;SDS011;57495;49.922;7.966;2023-03-23T07:07:47;5.77;;;1.97;;
70132;SDS011;57495;49.922;7.966;2023-03-23T07:09:48;4.40;;;1.80;;
70132;SDS011;57495;49.922;7.966;2023-03-23T07:11:50;5.50;;;2.15;;
70132;SDS011;57495;49.922;7.966;2023-03-23T07:13:53;4.15;;;1.70;;
70132;SDS011;57495;49.922;7.966;2023-03-23T07:15:54;5.38;;;1.95;;
70132;SDS011;57495;49.922;7.966;2023-03-23T07:17:57;4.73;;;1.80;;
70132;SDS011;57495;49.922;7.966;2023-03-23T07:19:58;5.38;;;2.03;;
70132;SDS011;57495;49.922;7.966;2023-03-23T07:22:00;4.60;;;1.90;;
70132;SDS011;57495;49.922;7.966;2023-03-23T07:24:01;4.18;;;1.65;;
70132;SDS011;57495;49.922;7.966;2023-03-23T07:26:03;5.03;;;1.85;;
70132;SDS011;57495;49.922;7.966;2023-03-23T07:28:04;4.33;;;1.70;;
70132;SDS011;57495;49.922;7.966;2023-03-23T07:30:08;4.22;;;1.80;;
70132;SDS011;57495;49.922;7.966;2023-03-23T07:32:10;4.18;;;1.50;;
70132;SDS011;57495;49.922;7.966;2023-03-23T07:34:12;4.05;;;1.75;;
70132;SDS011;57495;49.922;7.966;2023-03-23T07:36:14;5.53;;;2.30;;
70132;SDS011;57495;49.922;7.966;2023-03-23T07:38:16;3.73;;;1.30;;
70132;SDS011;57495;49.922;7.966;2023-03-23T07:40:18;5.85;;;1.73;;
70132;SDS011;57495;49.922;7.966;2023-03-23T07:42:20;4.43;;;1.73;;
70132;SDS011;57495;49.922;7.966;2023-03-23T07:44:22;5.85;;;1.77;;
70132;SDS011;57495;49.922;7.966;2023-03-23T07:46:25;3.88;;;1.40;;
70132;SDS011;57495;49.922;7.966;2023-03-23T07:48:26;5.70;;;1.43;;
70132;SDS011;57495;49.922;7.966;2023-03-23T07:50:28;4.53;;;1.80;;
70132;SDS011;57495;49.922;7.966;2023-03-23T07:52:29;5.00;;;1.95;;
70132;SDS011;57495;49.922;7.966;2023-03-23T07:54:31;3.67;;;1.30;;
70132;SDS011;57495;49.922;7.966;2023-03-23T07:56:33;3.80;;;1.48;;
70132;SDS011;57495;49.922;7.966;2023-03-23T07:58:35;4.40;;;1.40;;
70132;SDS011;57495;49.922;7.966;2023-03-23T08:00:37;4.63;;;1.40;;
70132;SDS011;57495;49.922;7.966;2023-03-23T08:02:41;5.18;;;1.60;;
70132;SDS011;57495;49.922;7.966;2023-03-23T08:04:43;4.15;;;1.30;;
70132;SDS011;57495;49.922;7.966;2023-03-23T08:06:44;4.25;;;1.40;;
70132;SDS011;57495;49.922;7.966;2023-03-23T08:08:47;3.73;;;1.40;;
70132;SDS011;57495;49.922;7.966;2023-03-23T08:10:48;4.40;;;1.38;;
70132;SDS011;57495;49.922;7.966;2023-03-23T08:12:50;3.65;;;1.40;;
70132;SDS011;57495;49.922;7.966;2023-03-23T08:14:53;3.92;;;1.40;;
70132;SDS011;57495;49.922;7.966;2023-03-23T08:16:54;4.22;;;1.30;;
70132;SDS011;57495;49.922;7.966;2023-03-23T08:18:57;4.10;;;1.60;;
70132;SDS011;57495;49.922;7.966;2023-03-23T08:20:59;4.97;;;1.77;;
70132;SDS011;57495;49.922;7.966;2023-03-23T08:23:00;3.50;;;1.00;;
70132;SDS011;57495;49.922;7.966;2023-03-23T08:25:03;3.42;;;1.27;;
70132;SDS011;57495;49.922;7.966;2023-03-23T08:27:06;3.60;;;1.58;;
70132;SDS011;57495;49.922;7.966;2023-03-23T08:29:07;3.73;;;1.23;;
70132;SDS011;57495;49.922;7.966;2023-03-23T08:31:10;3.38;;;1.45;;
70132;SDS011;57495;49.922;7.966;2023-03-23T08:33:13;4.05;;;1.50;;
70132;SDS011;57495;49.922;7.966;2023-03-23T08:35:16;3.75;;;1.38;;
70132;SDS011;57495;49.922;7.966;2023-03-23T08:37:19;3.55;;;1.25;;
70132;SDS011;57495;49.922;7.966;2023-03-23T08:39:21;3.90;;;1.23;;
70132;SDS011;57495;49.922;7.966;2023-03-23T08:41:23;3.45;;;0.85;;
70132;SDS011;57495;49.922;7.966;2023-03-23T08:43:25;3.80;;;1.10;;
70132;SDS011;57495;49.922;7.966;2023-03-23T08:45:27;2.50;;;0.80;;
70132;SDS011;57495;49.922;7.966;2023-03-23T08:47:28;3.28;;;0.82;;
70132;SDS011;57495;49.922;7.966;2023-03-23T08:49:29;2.60;;;0.57;;
70132;SDS011;57495;49.922;7.966;2023-03-23T08:51:33;2.33;;;0.77;;
70132;SDS011;57495;49.922;7.966;2023-03-23T08:53:35;3.40;;;0.60;;
70132;SDS011;57495;49.922;7.966;2023-03-23T08:55:37;2.83;;;0.70;;
70132;SDS011;57495;49.922;7.966;2023-03-23T08:57:39;4.90;;;0.75;;
70132;SDS011;57495;49.922;7.966;2023-03-23T08:59:42;3.00;;;0.53;;
70132;SDS011;57495;49.922;7.966;2023-03-23T09:01:44;2.80;;;0.47;;
70132;SDS011;57495;49.922;7.966;2023-03-23T09:03:45;2.00;;;0.45;;
70132;SDS011;57495;49.922;7.966;2023-03-23T09:05:47;2.42;;;0.47;;
70132;SDS011;57495;49.922;7.966;2023-03-23T09:07:50;3.05;;;0.40;;
70132;SDS011;57495;49.922;7.966;2023-03-23T09:09:53;1.83;;;0.30;;
70132;SDS011;57495;49.922;7.966;2023-03-23T09:11:54;2.38;;;0.40;;
70132;SDS011;57495;49.922;7.966;2023-03-23T09:13:56;2.63;;;0.50;;
70132;SDS011;57495;49.922;7.966;2023-03-23T09:15:57;2.40;;;0.20;;
70132;SDS011;57495;49.922;7.966;2023-03-23T09:17:58;1.60;;;0.35;;
70132;SDS011;57495;49.922;7.966;2023-03-23T09:20:00;2.40;;;0.53;;
70132;SDS011;57495;49.922;7.966;2023-03-23T09:22:02;1.52;;;0.30;;
70132;SDS011;57495;49.922;7.966;2023-03-23T09:24:06;2.33;;;0.50;;
70132;SDS011;57495;49.922;7.966;2023-03-23T09:26:07;2.45;;;0.47;;
70132;SDS011;57495;49.922;7.966;2023-03-23T09:28:09;1.90;;;0.50;;
70132;SDS011;57495;49.922;7.966;2023-03-23T09:30:11;1.40;;;0.20;;
70132;SDS011;57495;49.922;7.966;2023-03-23T09:32:15;1.63;;;0.40;;
70132;SDS011;57495;49.922;7.966;2023-03-23T09:34:16;3.25;;;0.38;;
70132;SDS011;57495;49.922;7.966;2023-03-23T09:36:18;3.25;;;0.32;;
70132;SDS011;57495;49.922;7.966;2023-03-23T09:38:21;2.45;;;0.43;;
70132;SDS011;57495;49.922;7.966;2023-03-23T09:40:25;1.53;;;0.30;;
70132;SDS011;57495;49.922;7.966;2023-03-23T09:42:33;1.80;;;0.28;;
70132;SDS011;57495;49.922;7.966;2023-03-23T09:44:48;2.58;;;0.40;;
70132;SDS011;57495;49.922;7.966;2023-03-23T09:46:59;2.85;;;0.45;;
70132;SDS011;57495;49.922;7.966;2023-03-23T09:49:07;2.45;;;0.57;;
70132;SDS011;57495;49.922;7.966;2023-03-23T09:51:14;3.37;;;0.40;;
70132;SDS011;57495;49.922;7.966;2023-03-23T09:53:27;1.98;;;0.47;;
70132;SDS011;57495;49.922;7.966;2023-03-23T09:55:36;2.22;;;0.40;;
70132;SDS011;57495;49.922;7.966;2023-03-23T09:57:39;2.95;;;0.57;;
70132;SDS011;57495;49.922;7.966;2023-03-23T09:59:49;1.75;;;0.35;;
70132;SDS011;57495;49.922;7.966;2023-03-23T10:01:56;2.43;;;0.50;;
70132;SDS011;57495;49.922;7.966;2023-03-23T10:04:02;2.17;;;0.30;;
70132;SDS011;57495;49.922;7.966;2023-03-23T10:06:09;2.40;;;0.40;;
70132;SDS011;57495;49.922;7.966;2023-03-23T10:08:13;2.63;;;0.40;;
70132;SDS011;57495;49.922;7.966;2023-03-23T10:10:16;2.10;;;0.50;;
70132;SDS011;57495;49.922;7.966;2023-03-23T10:12:24;2.40;;;0.30;;
70132;SDS011;57495;49.922;7.966;2023-03-23T10:14:36;4.13;;;0.52;;
70132;SDS011;57495;49.922;7.966;2023-03-23T10:16:50;2.80;;;0.35;;
70132;SDS011;57495;49.922;7.966;2023-03-23T10:19:00;2.60;;;0.55;;
70132;SDS011;57495;49.922;7.966;2023-03-23T10:21:06;2.78;;;1.02;;
70132;SDS011;57495;49.922;7.966;2023-03-23T10:23:24;2.67;;;0.20;;
70132;SDS011;57495;49.922;7.966;2023-03-23T10:25:40;1.55;;;0.30;;
70132;SDS011;57495;49.922;7.966;2023-03-23T10:27:47;3.28;;;0.63;;
70132;SDS011;57495;49.922;7.966;2023-03-23T10:29:55;1.95;;;0.30;;
70132;SDS011;57495;49.922;7.966;2023-03-23T10:32:03;3.08;;;0.50;;
70132;SDS011;57495;49.922;7.966;2023-03-23T10:34:13;1.80;;;0.57;;
70132;SDS011;57495;49.922;7.966;2023-03-23T10:36:21;3.00;;;0.80;;
70132;SDS011;57495;49.922;7.966;2023-03-23T10:38:28;3.67;;;0.90;;
70132;SDS011;57495;49.922;7.966;2023-03-23T10:40:43;2.25;;;0.63;;
70132;SDS011;57495;49.922;7.966;2023-03-23T10:42:49;2.70;;;0.90;;
70132;SDS011;57495;49.922;7.966;2023-03-23T10:44:52;2.43;;;0.97;;
70132;SDS011;57495;49.922;7.966;2023-03-23T10:46:55;2.58;;;0.98;;
70132;SDS011;57495;49.922;7.966;2023-03-23T10:49:00;3.17;;;1.33;;
70132;SDS011;57495;49.922;7.966;2023-03-23T10:51:05;2.40;;;0.70;;
70132;SDS011;57495;49.922;7.966;2023-03-23T10:53:12;2.80;;;0.63;;
70132;SDS011;57495;49.922;7.966;2023-03-23T10:55:17;2.97;;;0.70;;
70132;SDS011;57495;49.922;7.966;2023-03-23T10:57:21;2.55;;;0.57;;
70132;SDS011;57495;49.922;7.966;2023-03-23T10:59:27;4.22;;;0.82;;
70132;SDS011;57495;49.922;7.966;2023-03-23T11:01:31;2.85;;;0.85;;
70132;SDS011;57495;49.922;7.966;2023-03-23T11:03:39;2.33;;;0.60;;
70132;SDS011;57495;49.922;7.966;2023-03-23T11:05:44;1.97;;;0.60;;
70132;SDS011;57495;49.922;7.966;2023-03-23T11:07:50;2.38;;;0.50;;
70132;SDS011;57495;49.922;7.966;2023-03-23T11:09:54;2.13;;;0.63;;
70132;SDS011;57495;49.922;7.966;2023-03-23T11:11:58;2.80;;;0.60;;
70132;SDS011;57495;49.922;7.966;2023-03-23T11:14:01;3.10;;;0.75;;
70132;SDS011;57495;49.922;7.966;2023-03-23T11:16:07;2.07;;;0.60;;
70132;SDS011;57495;49.922;7.966;2023-03-23T11:18:11;3.63;;;0.68;;
70132;SDS011;57495;49.922;7.966;2023-03-23T11:20:19;2.35;;;0.50;;
70132;SDS011;57495;49.922;7.966;2023-03-23T11:22:24;1.80;;;0.22;;
70132;SDS011;57495;49.922;7.966;2023-03-23T11:24:28;2.05;;;0.45;;
70132;SDS011;57495;49.922;7.966;2023-03-23T11:26:30;1.73;;;0.20;;
70132;SDS011;57495;49.922;7.966;2023-03-23T11:28:34;1.83;;;0.30;;
70132;SDS011;57495;49.922;7.966;2023-03-23T11:30:38;2.45;;;0.70;;
70132;SDS011;57495;49.922;7.966;2023-03-23T11:32:43;2.28;;;0.63;;
70132;SDS011;57495;49.922;7.966;2023-03-23T11:34:47;1.90;;;0.63;;
70132;SDS011;57495;49.922;7.966;2023-03-23T11:36:50;3.30;;;0.67;;
70132;SDS011;57495;49.922;7.966;2023-03-23T11:38:54;1.90;;;0.50;;
70132;SDS011;57495;49.922;7.966;2023-03-23T11:40:57;2.63;;;0.98;;
70132;SDS011;57495;49.922;7.966;2023-03-23T11:43:01;2.17;;;0.38;;
70132;SDS011;57495;49.922;7.966;2023-03-23T11:45:13;2.97;;;0.65;;
70132;SDS011;57495;49.922;7.966;2023-03-23T11:47:20;2.83;;;0.80;;
70132;SDS011;57495;49.922;7.966;2023-03-23T11:49:32;2.95;;;0.80;;
70132;SDS011;57495;49.922;7.966;2023-03-23T11:51:49;2.80;;;0.90;;
70132;SDS011;57495;49.922;7.966;2023-03-23T11:53:55;2.10;;;0.52;;
70132;SDS011;57495;49.922;7.966;2023-03-23T11:56:05;3.15;;;0.70;;
70132;SDS011;57495;49.922;7.966;2023-03-23T11:58:12;7.70;;;2.47;;
70132;SDS011;57495;49.922;7.966;2023-03-23T12:00:16;3.03;;;0.55;;
70132;SDS011;57495;49.922;7.966;2023-03-23T12:02:24;3.05;;;0.55;;
70132;SDS011;57495;49.922;7.966;2023-03-23T12:04:46;2.35;;;0.45;;
70132;SDS011;57495;49.922;7.966;2023-03-23T12:07:00;2.78;;;0.68;;
70132;SDS011;57495;49.922;7.966;2023-03-23T12:09:28;2.80;;;0.53;;
70132;SDS011;57495;49.922;7.966;2023-03-23T12:11:51;2.55;;;0.40;;
70132;SDS011;57495;49.922;7.966;2023-03-23T12:14:06;1.90;;;0.40;;
70132;SDS011;57495;49.922;7.966;2023-03-23T12:16:17;2.50;;;0.52;;
70132;SDS011;57495;49.922;7.966;2023-03-23T12:18:36;2.20;;;0.50;;
70132;SDS011;57495;49.922;7.966;2023-03-23T12:20:49;2.67;;;0.60;;
70132;SDS011;57495;49.922;7.966;2023-03-23T12:23:03;2.88;;;0.40;;
70132;SDS011;57495;49.922;7.966;2023-03-23T12:25:20;2.63;;;0.60;;
70132;SDS011;57495;49.922;7.966;2023-03-23T12:27:35;2.55;;;0.63;;
70132;SDS011;57495;49.922;7.966;2023-03-23T12:32:21;2.10;;;0.37;;
70132;SDS011;57495;49.922;7.966;2023-03-23T12:34:33;3.28;;;0.80;;